VABP/BHO METAR and TAF weather

Enter ICAO airport designator
Station Type Date Time Source
VABP METAR 2019/06/17 12:30 UTC NOAA

VABP 171230Z 28015KT 6000 FEW025 SCT030 37/17 Q1003 NOSIG


Station Type Date Time Source
VABP Decoded METAR 2019/06/17 12:30 UTC NOAA

Bhopal / Bairagarh, India (VABP) 23-17N 077-21E 523M
Jun 17, 2019 - 08:30 AM EDT / 2019.06.17 1230 UTC
Wind: from the W (280 degrees) at 17 MPH (15 KT):0
Visibility: 3 mile(s):0
Sky conditions: partly cloudy
Temperature: 98 F (37 C)
Heat index: 99.0 F (37.2 C):1
Dew Point: 62 F (17 C)
Relative Humidity: 30%
Pressure (altimeter): 29.62 in. Hg (1003 hPa)
ob: VABP 171230Z 28015KT 6000 FEW025 SCT030 37/17 Q1003 NOSIG
cycle: 12

Station Type Date Time Source
VABP TAF 2019/04/18 06:00 UTC NOAA

TAF VABP 180500Z 1806/1815 32008KT 6000 FEW030

Example: see airport list